createdAt,value
2023-05-18T00:00:02.565Z,62.21
2023-05-18T00:02:31.805Z,62.23
2023-05-18T00:05:02.418Z,62.13
2023-05-18T00:07:34.242Z,61.95
2023-05-18T00:10:01.975Z,61.92
2023-05-18T00:12:29.129Z,61.91
2023-05-18T00:14:55.987Z,62.01
2023-05-18T00:17:23.718Z,61.97
2023-05-18T00:19:50.840Z,62.07
2023-05-18T00:23:16.632Z,62.03
2023-05-18T00:26:31.138Z,62.26
2023-05-18T00:28:58.246Z,62.42
2023-05-18T00:31:26.229Z,62.47
2023-05-18T00:33:53.191Z,62.46
2023-05-18T00:36:20.054Z,62.32
2023-05-18T00:38:47.002Z,62.25
2023-05-18T00:41:13.956Z,62.27
2023-05-18T00:43:41.620Z,62.48
2023-05-18T00:46:08.684Z,62.40
2023-05-18T00:48:35.674Z,62.25
2023-05-18T00:51:02.531Z,62.40
2023-05-18T00:53:55.198Z,62.37
2023-05-18T00:56:23.752Z,62.22
2023-05-18T00:58:57.398Z,62.16
2023-05-18T01:01:34.953Z,62.11
2023-05-18T01:04:05.130Z,61.93
2023-05-18T01:06:36.381Z,61.88
2023-05-18T01:09:04.644Z,61.79
2023-05-18T01:11:53.224Z,61.70
2023-05-18T01:14:49.971Z,61.87
2023-05-18T01:17:33.696Z,61.97
2023-05-18T01:20:10.049Z,62.15
2023-05-18T01:22:46.157Z,62.12
2023-05-18T01:25:41.004Z,61.88
2023-05-18T01:28:10.217Z,61.73
2023-05-18T01:31:14.461Z,61.77
2023-05-18T01:33:41.648Z,61.74
2023-05-18T01:36:08.978Z,61.80
2023-05-18T01:38:35.898Z,61.96
2023-05-18T01:41:52.758Z,61.95
2023-05-18T01:44:27.625Z,62.14
2023-05-18T01:47:17.383Z,62.41
2023-05-18T01:50:09.312Z,62.48
2023-05-18T01:52:41.002Z,62.61
2023-05-18T01:55:08.688Z,62.59
2023-05-18T01:57:37.258Z,62.63
2023-05-18T02:00:08.395Z,62.60
2023-05-18T02:03:44.305Z,62.54
2023-05-18T02:06:17.405Z,62.32
2023-05-18T02:08:47.197Z,62.25
2023-05-18T02:11:14.094Z,62.18
2023-05-18T02:13:41.132Z,62.05
2023-05-18T02:16:08.346Z,62.06
2023-05-18T02:18:36.484Z,62.33
2023-05-18T02:21:04.339Z,62.38
2023-05-18T02:23:50.238Z,62.43
2023-05-18T02:26:17.251Z,62.47
2023-05-18T02:28:52.511Z,62.55
2023-05-18T02:31:19.402Z,62.41
2023-05-18T02:33:46.521Z,62.32
2023-05-18T02:36:14.256Z,62.23
2023-05-18T02:38:43.946Z,62.20
2023-05-18T02:41:11.461Z,62.25
2023-05-18T02:43:38.410Z,62.23
2023-05-18T02:46:06.366Z,62.17
2023-05-18T02:48:36.796Z,62.17
2023-05-18T02:51:07.514Z,62.20
2023-05-18T02:53:34.459Z,62.24
2023-05-18T02:56:45.199Z,62.50
2023-05-18T02:59:32.967Z,62.99
2023-05-18T03:02:25.054Z,63.34
2023-05-18T03:04:54.293Z,63.40
2023-05-18T03:07:21.421Z,63.36
2023-05-18T03:09:48.596Z,63.54
2023-05-18T03:12:21.766Z,63.61
2023-05-18T03:14:48.712Z,63.71
2023-05-18T03:17:16.838Z,63.50
2023-05-18T03:19:43.843Z,63.46
2023-05-18T03:22:10.722Z,63.60
2023-05-18T03:24:47.135Z,63.56
2023-05-18T03:27:16.618Z,63.49
2023-05-18T03:29:44.475Z,63.54
2023-05-18T03:32:12.881Z,63.66
2023-05-18T03:34:39.772Z,63.51
2023-05-18T03:37:07.336Z,63.36
2023-05-18T03:39:34.453Z,63.37
2023-05-18T03:42:01.629Z,63.20
2023-05-18T03:44:28.875Z,63.09
2023-05-18T03:46:56.136Z,62.97
2023-05-18T03:49:23.047Z,62.95
2023-05-18T03:52:34.392Z,62.96
2023-05-18T03:55:01.882Z,63.01
2023-05-18T03:57:29.214Z,62.89
2023-05-18T04:01:54.344Z,63.53
2023-05-18T04:04:23.613Z,62.86
2023-05-18T04:06:53.589Z,62.53
2023-05-18T04:09:21.938Z,62.34
2023-05-18T04:11:48.823Z,62.19
2023-05-18T04:14:17.355Z,62.11
2023-05-18T04:16:44.720Z,61.68
2023-05-18T04:19:11.882Z,61.49
2023-05-18T04:21:38.838Z,61.11
2023-05-18T04:24:07.238Z,61.06
2023-05-18T04:26:36.683Z,60.65
2023-05-18T04:29:03.760Z,60.39
2023-05-18T04:31:30.979Z,60.05
2023-05-18T04:33:58.963Z,59.61
2023-05-18T04:36:30.659Z,59.03
2023-05-18T04:39:01.043Z,58.48
2023-05-18T04:41:28.636Z,58.05
2023-05-18T04:44:59.188Z,57.55
2023-05-18T04:47:54.647Z,56.80
2023-05-18T04:50:23.998Z,56.17
2023-05-18T04:52:51.473Z,55.74
2023-05-18T04:55:28.045Z,55.35
2023-05-18T04:57:57.488Z,55.11
2023-05-18T05:01:01.708Z,55.02
2023-05-18T05:03:28.824Z,54.88
2023-05-18T05:05:56.201Z,54.74
2023-05-18T05:08:24.411Z,54.67
2023-05-18T05:10:51.355Z,54.42
2023-05-18T05:13:18.293Z,54.33
2023-05-18T05:15:45.296Z,53.97
2023-05-18T05:18:12.157Z,53.47
2023-05-18T05:20:50.228Z,53.37
2023-05-18T05:23:17.218Z,53.39
2023-05-18T05:25:54.831Z,53.17
2023-05-18T05:28:21.842Z,52.97
2023-05-18T05:30:48.765Z,52.93
2023-05-18T05:33:18.565Z,52.82
2023-05-18T05:35:45.774Z,52.63
2023-05-18T05:38:12.830Z,52.76
2023-05-18T05:40:40.044Z,52.63
2023-05-18T05:43:07.193Z,52.61
2023-05-18T05:45:34.498Z,52.52
2023-05-18T05:48:04.485Z,51.90
2023-05-18T05:50:32.312Z,51.33
2023-05-18T05:53:01.151Z,51.26
2023-05-18T05:55:30.698Z,51.03
2023-05-18T05:57:57.800Z,50.50
2023-05-18T06:00:25.425Z,50.42
2023-05-18T06:02:53.932Z,50.04
2023-05-18T06:05:28.930Z,49.89
2023-05-18T06:07:56.921Z,49.68
2023-05-18T06:10:24.058Z,49.53
2023-05-18T06:12:51.058Z,48.97
2023-05-18T06:15:19.387Z,48.54
2023-05-18T06:17:47.447Z,47.84
2023-05-18T06:20:15.203Z,47.94
2023-05-18T06:22:42.197Z,48.20
2023-05-18T06:25:29.456Z,47.71
2023-05-18T06:28:26.056Z,47.07
2023-05-18T06:31:01.004Z,46.90
2023-05-18T06:33:31.333Z,46.75
2023-05-18T06:35:58.360Z,46.54
2023-05-18T06:38:25.367Z,46.20
2023-05-18T06:40:52.393Z,45.92
2023-05-18T06:43:19.270Z,45.75
2023-05-18T06:45:56.497Z,45.20
2023-05-18T06:48:49.366Z,44.54
2023-05-18T06:51:16.649Z,44.30
2023-05-18T06:53:44.558Z,44.04
2023-05-18T06:56:13.087Z,43.97
2023-05-18T06:58:41.741Z,43.71
2023-05-18T07:01:09.924Z,43.46
2023-05-18T07:03:37.584Z,43.00
2023-05-18T07:06:04.934Z,42.41
2023-05-18T07:08:54.629Z,41.92
2023-05-18T07:11:52.689Z,42.12
2023-05-18T07:14:45.376Z,41.23
2023-05-18T07:17:38.841Z,40.60
2023-05-18T07:20:15.209Z,40.23
2023-05-18T07:22:42.157Z,39.92
2023-05-18T07:25:09.532Z,38.79
2023-05-18T07:27:36.365Z,38.91
2023-05-18T07:30:03.542Z,38.69
2023-05-18T07:32:30.601Z,38.35
2023-05-18T07:34:57.725Z,37.95
2023-05-18T07:37:24.621Z,37.87
2023-05-18T07:39:52.781Z,37.83
2023-05-18T07:42:19.650Z,37.72
2023-05-18T07:44:46.591Z,37.66
2023-05-18T07:47:13.467Z,36.32
2023-05-18T07:49:40.461Z,35.61
2023-05-18T07:52:33.756Z,35.77
2023-05-18T07:55:04.222Z,35.41
2023-05-18T07:57:31.198Z,35.08
2023-05-18T07:59:58.094Z,34.40
2023-05-18T08:02:25.674Z,34.12
2023-05-18T08:04:53.546Z,34.12
2023-05-18T08:07:21.588Z,34.10
2023-05-18T08:09:48.495Z,33.97
2023-05-18T08:12:15.461Z,34.11
2023-05-18T08:14:42.398Z,33.81
2023-05-18T08:17:09.442Z,34.14
2023-05-18T08:19:37.414Z,33.88
2023-05-18T08:22:05.414Z,32.80
2023-05-18T08:24:33.298Z,32.57
2023-05-18T08:27:01.248Z,32.62
2023-05-18T08:29:28.132Z,32.61
2023-05-18T08:31:55.057Z,32.78
2023-05-18T08:34:48.198Z,32.73
2023-05-18T08:37:15.072Z,32.30
2023-05-18T08:39:42.006Z,31.77
2023-05-18T08:42:42.031Z,31.67
2023-05-18T08:45:33.150Z,31.63
2023-05-18T08:48:01.650Z,31.69
2023-05-18T08:50:28.869Z,31.54
2023-05-18T08:52:56.099Z,31.52
2023-05-18T08:55:23.550Z,31.32
2023-05-18T08:57:58.404Z,31.26
2023-05-18T09:00:25.418Z,31.10
2023-05-18T09:02:52.532Z,30.46
2023-05-18T09:05:19.586Z,30.50
2023-05-18T09:07:46.532Z,30.34
2023-05-18T09:10:13.938Z,30.05
2023-05-18T09:13:30.888Z,29.70
2023-05-18T09:15:57.820Z,30.05
2023-05-18T09:18:27.524Z,29.84
2023-05-18T09:20:55.337Z,29.38
2023-05-18T09:23:22.287Z,29.57
2023-05-18T09:25:52.032Z,29.44
2023-05-18T09:28:38.896Z,28.52
2023-05-18T09:31:07.925Z,27.16
2023-05-18T09:33:37.379Z,26.48
2023-05-18T09:36:05.731Z,26.92
2023-05-18T09:38:36.915Z,26.98
2023-05-18T09:41:03.786Z,27.74
2023-05-18T09:43:31.247Z,27.42
2023-05-18T09:45:58.181Z,27.65
2023-05-18T09:48:25.521Z,27.64
2023-05-18T09:50:52.484Z,28.26
2023-05-18T09:53:19.595Z,27.92
2023-05-18T09:55:47.851Z,27.30
2023-05-18T09:58:15.120Z,26.36
2023-05-18T10:00:49.579Z,26.58
2023-05-18T10:03:20.879Z,26.22
2023-05-18T10:05:48.116Z,26.48
2023-05-18T10:08:15.436Z,25.99
2023-05-18T10:10:44.914Z,25.45
2023-05-18T10:13:20.033Z,25.43
2023-05-18T10:15:48.612Z,26.04
2023-05-18T10:18:19.037Z,25.99
2023-05-18T10:20:45.888Z,25.74
2023-05-18T10:23:12.783Z,26.02
2023-05-18T10:25:39.752Z,26.95
2023-05-18T10:28:07.200Z,26.78
2023-05-18T10:30:34.847Z,26.94
2023-05-18T10:33:01.978Z,26.89
2023-05-18T10:35:28.936Z,26.40
2023-05-18T10:37:56.296Z,25.81
2023-05-18T10:40:23.210Z,26.47
2023-05-18T10:42:50.767Z,26.61
2023-05-18T10:45:17.736Z,26.04
2023-05-18T10:47:45.039Z,25.81
2023-05-18T10:50:12.201Z,26.26
2023-05-18T10:52:39.237Z,26.13
2023-05-18T10:55:07.098Z,25.96
2023-05-18T10:57:38.172Z,25.72
2023-05-18T11:00:07.992Z,25.64
2023-05-18T11:02:35.050Z,25.65
2023-05-18T11:05:05.685Z,25.38
2023-05-18T11:07:34.200Z,26.08
2023-05-18T11:10:01.735Z,24.99
2023-05-18T11:12:28.656Z,25.22
2023-05-18T11:14:58.009Z,25.16
2023-05-18T11:17:26.233Z,24.22
2023-05-18T11:20:02.259Z,24.56
2023-05-18T11:22:58.538Z,24.20
2023-05-18T11:25:31.483Z,23.92
2023-05-18T11:28:02.345Z,24.52
2023-05-18T11:30:30.031Z,24.01
2023-05-18T11:33:09.891Z,23.32
2023-05-18T11:35:56.291Z,23.52
2023-05-18T11:38:23.843Z,23.27
2023-05-18T11:40:59.516Z,23.76
2023-05-18T11:43:28.979Z,24.01
2023-05-18T11:45:59.274Z,23.63
2023-05-18T11:48:27.642Z,23.27
2023-05-18T11:51:16.173Z,22.26
2023-05-18T11:53:43.238Z,22.47
2023-05-18T11:56:25.904Z,22.27
2023-05-18T11:59:13.212Z,22.59
2023-05-18T12:01:52.447Z,21.83
2023-05-18T12:04:25.646Z,21.77
2023-05-18T12:06:59.112Z,21.70
2023-05-18T12:09:26.233Z,22.07
2023-05-18T12:11:56.096Z,21.78
2023-05-18T12:15:01.210Z,22.21
2023-05-18T12:18:03.288Z,22.42
2023-05-18T12:21:17.123Z,22.02
2023-05-18T12:23:47.559Z,22.06
2023-05-18T12:27:06.838Z,22.12
2023-05-18T12:29:54.140Z,22.00
2023-05-18T12:32:50.193Z,21.76
2023-05-18T12:35:24.039Z,21.86
2023-05-18T12:42:35.347Z,22.24
2023-05-18T12:45:03.144Z,22.06
2023-05-18T12:47:33.158Z,22.25
2023-05-18T12:50:03.640Z,21.98
2023-05-18T12:52:30.648Z,21.80
2023-05-18T12:55:00.810Z,21.10
2023-05-18T12:57:27.928Z,21.22
2023-05-18T12:59:54.948Z,21.54
2023-05-18T13:02:31.858Z,20.81
2023-05-18T13:05:07.652Z,20.64
2023-05-18T13:07:42.385Z,20.73
2023-05-18T13:10:10.969Z,19.82
2023-05-18T13:12:45.491Z,20.62
2023-05-18T13:15:14.296Z,20.43
2023-05-18T13:18:12.745Z,19.65
2023-05-18T13:20:51.051Z,19.56
2023-05-18T13:23:19.658Z,19.60
2023-05-18T13:25:46.922Z,19.05
2023-05-18T13:28:15.104Z,18.81
2023-05-18T13:30:42.577Z,19.02
2023-05-18T13:33:09.694Z,19.82
2023-05-18T13:35:37.225Z,19.95
2023-05-18T13:38:04.228Z,19.90
2023-05-18T13:40:31.130Z,18.80
2023-05-18T13:42:58.051Z,18.57
2023-05-18T13:46:08.785Z,18.14
2023-05-18T13:48:35.865Z,18.21
2023-05-18T13:51:05.985Z,18.63
2023-05-18T13:53:33.003Z,17.93
2023-05-18T13:55:59.856Z,17.31
2023-05-18T13:58:26.713Z,16.46
2023-05-18T14:00:54.634Z,15.54
2023-05-18T14:03:24.309Z,14.75
2023-05-18T14:05:51.444Z,14.15
2023-05-18T14:08:18.447Z,13.74
2023-05-18T14:10:45.337Z,13.27
2023-05-18T14:13:12.232Z,12.55
2023-05-18T14:15:39.163Z,11.88
2023-05-18T14:18:06.369Z,11.83
2023-05-18T14:20:37.972Z,11.51
2023-05-18T14:23:06.051Z,11.10
2023-05-18T14:26:26.713Z,11.34
2023-05-18T14:28:53.666Z,10.44
2023-05-18T14:31:20.758Z,9.97
2023-05-18T14:34:21.655Z,9.60
2023-05-18T14:37:08.111Z,9.84
2023-05-18T14:39:35.041Z,9.90
2023-05-18T14:42:01.875Z,9.40
2023-05-18T14:44:28.743Z,9.28
2023-05-18T14:46:55.931Z,9.40
2023-05-18T14:49:22.858Z,9.03
2023-05-18T14:52:42.841Z,8.93
2023-05-18T14:55:09.929Z,9.11
2023-05-18T14:57:36.812Z,8.89
2023-05-18T15:00:04.265Z,9.35
2023-05-18T15:02:54.097Z,8.87
2023-05-18T15:05:21.155Z,9.05
2023-05-18T15:07:48.102Z,9.16
2023-05-18T15:10:15.520Z,9.00
2023-05-18T15:12:43.017Z,8.93
2023-05-18T15:15:12.992Z,9.23
2023-05-18T15:17:40.099Z,10.15
2023-05-18T15:20:11.224Z,10.19
2023-05-18T15:22:43.829Z,10.02
2023-05-18T15:25:10.677Z,10.06
2023-05-18T15:27:37.760Z,9.83
2023-05-18T15:30:11.387Z,10.08
2023-05-18T15:32:38.887Z,9.76
2023-05-18T15:35:06.404Z,10.06
2023-05-18T15:37:43.441Z,10.36
2023-05-18T15:40:10.588Z,10.15
2023-05-18T15:42:37.529Z,10.16
2023-05-18T15:45:05.148Z,10.33
2023-05-18T15:47:32.040Z,9.88
2023-05-18T15:49:58.858Z,10.00
2023-05-18T15:52:25.916Z,10.13
2023-05-18T15:54:52.899Z,10.02
2023-05-18T15:57:19.817Z,10.74
2023-05-18T15:59:46.741Z,10.79
2023-05-18T16:02:13.857Z,10.82
2023-05-18T16:04:40.815Z,10.93
2023-05-18T16:07:07.722Z,10.61
2023-05-18T16:09:34.586Z,11.10
2023-05-18T16:12:01.492Z,12.15
2023-05-18T16:14:28.645Z,12.17
2023-05-18T16:19:52.942Z,12.51
2023-05-18T16:22:19.808Z,12.84
2023-05-18T16:24:46.655Z,13.61
2023-05-18T16:27:13.645Z,14.56
2023-05-18T16:29:41.573Z,15.22
2023-05-18T16:32:14.333Z,16.17
2023-05-18T16:35:29.875Z,15.71
2023-05-18T16:37:56.835Z,17.55
2023-05-18T16:40:23.770Z,19.41
2023-05-18T16:42:50.722Z,20.72
2023-05-18T16:45:17.682Z,21.71
2023-05-18T16:47:44.827Z,21.58
2023-05-18T16:50:12.014Z,21.02
2023-05-18T16:52:38.912Z,20.08
2023-05-18T16:55:06.379Z,20.54
2023-05-18T16:57:33.846Z,21.92
2023-05-18T17:00:01.261Z,22.44
2023-05-18T17:02:28.679Z,22.71
2023-05-18T17:04:55.890Z,22.70
2023-05-18T17:07:22.893Z,22.71
2023-05-18T17:09:49.998Z,23.34
2023-05-18T17:12:17.005Z,24.58
2023-05-18T17:14:43.897Z,25.64
2023-05-18T17:17:11.462Z,25.60
2023-05-18T17:19:39.825Z,26.68
2023-05-18T17:22:06.684Z,27.57
2023-05-18T17:24:33.589Z,28.38
2023-05-18T17:27:00.795Z,29.01
2023-05-18T17:29:27.700Z,28.90
2023-05-18T17:31:54.811Z,29.03
2023-05-18T17:34:22.273Z,29.82
2023-05-18T17:36:49.453Z,30.71
2023-05-18T17:39:16.779Z,31.02
2023-05-18T17:41:44.028Z,31.89
2023-05-18T17:44:14.579Z,32.26
2023-05-18T17:46:41.990Z,32.61
2023-05-18T17:49:09.268Z,32.81
2023-05-18T17:51:36.355Z,32.88
2023-05-18T17:54:03.587Z,33.07
2023-05-18T17:56:31.731Z,33.54
2023-05-18T17:58:59.231Z,34.60
2023-05-18T18:01:27.139Z,35.17
2023-05-18T18:03:55.221Z,35.14
2023-05-18T18:06:25.167Z,33.87
2023-05-18T18:08:53.990Z,33.22
2023-05-18T18:11:46.117Z,32.87
2023-05-18T18:14:17.484Z,32.97
2023-05-18T18:16:44.572Z,33.14
2023-05-18T18:19:12.099Z,33.21
2023-05-18T18:21:39.298Z,33.11
2023-05-18T18:24:06.469Z,33.20
2023-05-18T18:26:38.755Z,33.40
2023-05-18T18:29:05.736Z,33.62
2023-05-18T18:32:23.395Z,34.18
2023-05-18T18:34:51.218Z,34.80
2023-05-18T18:37:18.390Z,35.00
2023-05-18T18:39:45.601Z,35.72
2023-05-18T18:42:12.625Z,35.86
2023-05-18T18:44:39.586Z,37.00
2023-05-18T18:47:06.539Z,36.97
2023-05-18T18:49:33.624Z,36.86
2023-05-18T18:52:00.969Z,36.87
2023-05-18T18:54:27.848Z,36.71
2023-05-18T18:56:55.258Z,37.11
2023-05-18T18:59:22.362Z,36.58
2023-05-18T19:01:49.337Z,36.87
2023-05-18T19:04:16.380Z,37.57
2023-05-18T19:06:43.922Z,38.23
2023-05-18T19:09:11.376Z,38.43
2023-05-18T19:11:38.352Z,39.63
2023-05-18T19:14:05.506Z,39.77
2023-05-18T19:16:33.082Z,38.90
2023-05-18T19:19:00.156Z,39.00
2023-05-18T19:21:28.990Z,39.41
2023-05-18T19:23:55.903Z,39.51
2023-05-18T19:26:22.912Z,39.50
2023-05-18T19:28:49.775Z,39.58
2023-05-18T19:31:16.767Z,40.03
2023-05-18T19:33:43.696Z,40.36
2023-05-18T19:36:11.637Z,40.75
2023-05-18T19:38:38.660Z,40.46
2023-05-18T19:41:05.588Z,40.63
2023-05-18T19:43:32.458Z,40.81
2023-05-18T19:45:59.330Z,40.70
2023-05-18T19:48:26.407Z,40.80
2023-05-18T19:50:53.407Z,41.11
2023-05-18T19:53:20.638Z,41.14
2023-05-18T19:55:48.877Z,41.15
2023-05-18T19:58:16.116Z,40.75
2023-05-18T20:00:43.142Z,40.70
2023-05-18T20:03:10.610Z,40.78
2023-05-18T20:05:37.565Z,40.73
2023-05-18T20:08:05.045Z,40.65
2023-05-18T20:10:32.218Z,40.63
2023-05-18T20:12:59.351Z,40.48
2023-05-18T20:15:28.045Z,40.52
2023-05-18T20:17:54.981Z,40.73
2023-05-18T20:20:21.861Z,40.80
2023-05-18T20:22:48.764Z,40.96
2023-05-18T20:25:15.860Z,41.15
2023-05-18T20:27:42.758Z,41.50
2023-05-18T20:30:10.220Z,41.98
2023-05-18T20:32:37.235Z,42.11
2023-05-18T20:35:04.374Z,42.02
2023-05-18T20:37:34.087Z,41.76
2023-05-18T20:40:01.745Z,41.81
2023-05-18T20:42:38.740Z,41.97
2023-05-18T20:45:09.212Z,42.06
2023-05-18T20:47:36.203Z,41.89
2023-05-18T20:50:03.350Z,41.88
2023-05-18T20:52:31.289Z,41.74
2023-05-18T20:54:58.156Z,41.76
2023-05-18T20:57:25.077Z,41.83
2023-05-18T20:59:52.140Z,41.81
2023-05-18T21:02:19.718Z,42.02
2023-05-18T21:04:49.708Z,42.68
2023-05-18T21:07:16.694Z,43.66
2023-05-18T21:09:43.647Z,45.90
2023-05-18T21:12:10.689Z,47.10
2023-05-18T21:14:37.628Z,47.95
2023-05-18T21:17:05.717Z,48.04
2023-05-18T21:19:32.612Z,48.25
2023-05-18T21:21:59.831Z,47.53
2023-05-18T21:24:26.764Z,46.12
2023-05-18T21:26:53.899Z,45.89
2023-05-18T21:29:21.001Z,45.31
2023-05-18T21:31:48.914Z,44.84
2023-05-18T21:34:16.425Z,44.46
2023-05-18T21:36:43.351Z,45.07
2023-05-18T21:39:10.375Z,45.37
2023-05-18T21:41:42.444Z,45.55
2023-05-18T21:44:09.434Z,45.13
2023-05-18T21:46:36.894Z,44.97
2023-05-18T21:49:05.056Z,45.59
2023-05-18T21:51:32.524Z,46.37
2023-05-18T21:54:00.011Z,45.51
2023-05-18T21:56:27.605Z,45.78
2023-05-18T21:58:54.909Z,45.07
2023-05-18T22:01:23.419Z,44.76
2023-05-18T22:03:50.955Z,44.63
2023-05-18T22:06:20.947Z,44.35
2023-05-18T22:08:47.859Z,44.16
2023-05-18T22:11:14.978Z,44.99
2023-05-18T22:13:41.886Z,45.52
2023-05-18T22:16:08.709Z,46.13
2023-05-18T22:18:35.620Z,46.05
2023-05-18T22:21:02.552Z,47.23
2023-05-18T22:23:29.395Z,48.38
2023-05-18T22:25:56.312Z,48.96
2023-05-18T22:28:23.318Z,49.09
2023-05-18T22:30:51.054Z,48.68
2023-05-18T22:33:18.218Z,49.00
2023-05-18T22:35:45.223Z,47.16
2023-05-18T22:38:12.236Z,46.35
2023-05-18T22:40:39.170Z,46.23
2023-05-18T22:43:06.246Z,46.25
2023-05-18T22:45:33.691Z,45.99
2023-05-18T22:48:01.567Z,45.82
2023-05-18T22:50:28.644Z,45.86
2023-05-18T22:52:55.532Z,45.93
2023-05-18T22:55:22.390Z,45.96
2023-05-18T22:57:49.411Z,45.71
2023-05-18T23:00:17.397Z,45.52
2023-05-18T23:02:44.620Z,46.12
2023-05-18T23:05:11.704Z,46.08
2023-05-18T23:07:38.966Z,46.52
2023-05-18T23:10:06.686Z,46.38
2023-05-18T23:12:33.882Z,46.52
2023-05-18T23:15:04.180Z,46.59
2023-05-18T23:17:32.001Z,46.25
2023-05-18T23:20:02.882Z,45.95
2023-05-18T23:22:29.779Z,45.34
2023-05-18T23:24:56.806Z,44.99
2023-05-18T23:27:23.964Z,44.61
2023-05-18T23:29:53.045Z,44.41
2023-05-18T23:32:20.238Z,44.81
2023-05-18T23:34:47.522Z,46.07
2023-05-18T23:37:14.706Z,46.72
2023-05-18T23:39:42.222Z,46.34
2023-05-18T23:42:09.319Z,46.12
2023-05-18T23:44:36.562Z,46.13
2023-05-18T23:47:03.833Z,45.32
2023-05-18T23:49:31.008Z,44.87
2023-05-18T23:52:00.814Z,44.63
2023-05-18T23:54:28.085Z,45.01
2023-05-18T23:56:55.312Z,44.86
2023-05-18T23:59:22.474Z,44.59
